RJTJ(METAR)
06/28 22:16
RJTJ 281316Z VRB02KT 9999 FEW020 BKN030 23/18 Q1014 RMK 1SC020
5SC030 A2995=
戻る
トップページへ戻る
IMOC Co,.Ltd.